createdAt,value
2022-10-20T00:01:43.101Z,101435.63
2022-10-20T00:05:43.085Z,101430.28
2022-10-20T00:09:41.923Z,101432.94
2022-10-20T00:13:47.258Z,101426.59
2022-10-20T00:17:46.611Z,101369.16
2022-10-20T00:21:46.315Z,101406.63
2022-10-20T00:25:46.390Z,101342.34
2022-10-20T00:29:50.514Z,101417.84
2022-10-20T00:33:49.994Z,101413.34
2022-10-20T00:37:49.715Z,101411.81
2022-10-20T00:41:48.799Z,101371.56
2022-10-20T00:45:56.561Z,101414.94
2022-10-20T00:50:10.612Z,101424.53
2022-10-20T00:54:12.426Z,101411.44
2022-10-20T00:58:12.161Z,101425.53
2022-10-20T01:02:14.237Z,101413.91
2022-10-20T01:10:15.882Z,101405.91
2022-10-20T01:14:30.043Z,101398.63
2022-10-20T01:18:41.895Z,101416.22
2022-10-20T01:23:08.735Z,101388.00
2022-10-20T01:27:39.058Z,101413.94
2022-10-20T01:31:45.833Z,101436.84
2022-10-20T01:35:57.375Z,101390.38
2022-10-20T01:40:04.084Z,101375.53
2022-10-20T01:44:10.638Z,101437.00
2022-10-20T01:48:13.961Z,101400.84
2022-10-20T01:52:14.178Z,101433.28
2022-10-20T01:56:18.668Z,101427.22
2022-10-20T02:00:20.578Z,101434.94
2022-10-20T02:04:27.294Z,101432.81
2022-10-20T02:08:33.032Z,101451.69
2022-10-20T02:12:37.940Z,101446.22
2022-10-20T02:16:50.014Z,101439.25
2022-10-20T02:20:52.591Z,101474.47
2022-10-20T02:24:52.448Z,101477.09
2022-10-20T02:28:57.414Z,101486.78
2022-10-20T02:32:59.209Z,101490.09
2022-10-20T02:37:00.323Z,101478.44
2022-10-20T02:40:59.430Z,101492.47
2022-10-20T02:45:02.125Z,101485.56
2022-10-20T02:49:03.915Z,101488.97
2022-10-20T02:53:03.833Z,101499.16
2022-10-20T02:57:03.547Z,101464.75
2022-10-20T03:01:02.742Z,101467.75
2022-10-20T03:05:04.565Z,101514.47
2022-10-20T03:09:06.458Z,101505.03
2022-10-20T03:13:13.281Z,101540.63
2022-10-20T03:17:17.412Z,101522.63
2022-10-20T03:21:18.918Z,101537.00
2022-10-20T03:25:18.726Z,101556.03
2022-10-20T03:29:20.036Z,101544.91
2022-10-20T03:33:19.641Z,101551.59
2022-10-20T03:37:21.648Z,101561.47
2022-10-20T03:41:20.675Z,101565.03
2022-10-20T03:45:20.049Z,101516.91
2022-10-20T03:49:19.275Z,101575.81
2022-10-20T03:53:21.040Z,101564.84
2022-10-20T03:57:20.855Z,101585.63
2022-10-20T04:01:23.893Z,101571.38
2022-10-20T04:05:27.076Z,101534.41
2022-10-20T04:09:29.049Z,101525.34
2022-10-20T04:13:28.638Z,101579.19
2022-10-20T04:17:28.145Z,101577.53
2022-10-20T04:21:27.844Z,101598.19
2022-10-20T04:25:29.151Z,101574.03
2022-10-20T04:29:28.897Z,101590.88
2022-10-20T04:33:28.741Z,101606.91
2022-10-20T04:37:28.553Z,101610.72
2022-10-20T04:41:29.986Z,101571.50
2022-10-20T04:45:30.114Z,101610.47
2022-10-20T04:49:29.907Z,101625.50
2022-10-20T04:53:29.626Z,101620.06
2022-10-20T04:57:31.513Z,101626.38
2022-10-20T05:01:33.350Z,101649.41
2022-10-20T05:05:32.597Z,101629.25
2022-10-20T05:09:32.703Z,101657.78
2022-10-20T05:13:34.699Z,101679.97
2022-10-20T05:17:34.293Z,101687.91
2022-10-20T05:21:34.207Z,101695.00
2022-10-20T05:25:37.198Z,101723.84
2022-10-20T05:29:39.249Z,101731.81
2022-10-20T05:33:38.890Z,101742.25
2022-10-20T05:37:38.585Z,101755.88
2022-10-20T05:41:39.184Z,101762.09
2022-10-20T05:45:41.215Z,101765.88
2022-10-20T05:49:40.918Z,101771.81
2022-10-20T05:53:41.172Z,101774.94
2022-10-20T05:57:40.278Z,101769.94
2022-10-20T06:01:47.627Z,101782.69
2022-10-20T06:05:47.698Z,101802.91
2022-10-20T06:09:46.979Z,101797.16
2022-10-20T06:13:51.850Z,101805.16
2022-10-20T06:17:55.727Z,101816.81
2022-10-20T06:21:55.988Z,101831.78
2022-10-20T06:25:55.774Z,101795.09
2022-10-20T06:29:54.619Z,101832.19
2022-10-20T06:33:56.732Z,101835.81
2022-10-20T06:37:57.818Z,101800.47
2022-10-20T06:41:57.486Z,101825.91
2022-10-20T06:46:01.236Z,101840.03
2022-10-20T06:50:03.405Z,101849.91
2022-10-20T06:54:03.395Z,101846.47
2022-10-20T06:58:03.438Z,101851.72
2022-10-20T07:02:03.999Z,101846.41
2022-10-20T07:06:06.645Z,101851.66
2022-10-20T07:10:06.691Z,101820.69
2022-10-20T07:14:07.455Z,101876.03
2022-10-20T07:18:06.697Z,101852.94
2022-10-20T07:22:08.524Z,101861.47
2022-10-20T07:26:09.823Z,101853.03
2022-10-20T07:30:10.683Z,101864.56
2022-10-20T07:34:25.142Z,101863.84
2022-10-20T07:38:33.277Z,101868.19
2022-10-20T07:42:33.688Z,101852.38
2022-10-20T07:46:33.980Z,101863.81
2022-10-20T07:50:35.271Z,101859.31
2022-10-20T07:54:37.194Z,101858.38
2022-10-20T07:58:36.997Z,101807.91
2022-10-20T08:02:36.774Z,101846.63
2022-10-20T08:06:39.259Z,101849.38
2022-10-20T08:10:41.627Z,101853.97
2022-10-20T08:14:40.686Z,101835.56
2022-10-20T08:19:01.116Z,101847.09
2022-10-20T08:23:00.820Z,101853.22
2022-10-20T08:27:02.722Z,101799.53
2022-10-20T08:31:04.485Z,101856.03
2022-10-20T08:35:04.485Z,101864.03
2022-10-20T08:39:06.182Z,101874.59
2022-10-20T08:43:07.841Z,101869.31
2022-10-20T08:47:19.298Z,101871.97
2022-10-20T08:51:21.761Z,101871.88
2022-10-20T08:55:28.341Z,101878.16
2022-10-20T08:59:36.564Z,101885.19
2022-10-20T09:03:38.559Z,101889.59
2022-10-20T09:07:40.701Z,101865.81
2022-10-20T09:11:42.270Z,101894.03
2022-10-20T09:15:44.588Z,101901.88
2022-10-20T09:19:48.597Z,101899.28
2022-10-20T09:27:51.280Z,101903.72
2022-10-20T09:31:56.718Z,101903.69
2022-10-20T09:35:57.319Z,101904.59
2022-10-20T09:40:00.352Z,101907.25
2022-10-20T09:44:03.018Z,101924.00
2022-10-20T09:48:08.460Z,101902.81
2022-10-20T09:52:24.993Z,101886.97
2022-10-20T09:56:34.630Z,101895.75
2022-10-20T10:00:38.355Z,101906.31
2022-10-20T10:04:42.970Z,101896.56
2022-10-20T10:08:47.868Z,101897.50
2022-10-20T10:12:53.915Z,101893.09
2022-10-20T10:16:53.197Z,101900.91
2022-10-20T10:21:03.225Z,101884.25
2022-10-20T10:25:04.893Z,101857.88
2022-10-20T10:29:05.851Z,101879.78
2022-10-20T10:33:26.197Z,101886.91
2022-10-20T10:37:33.917Z,101884.13
2022-10-20T10:42:02.456Z,101874.25
2022-10-20T10:46:07.255Z,101866.50
2022-10-20T10:50:27.970Z,101867.47
2022-10-20T10:54:37.651Z,101860.41
2022-10-20T10:58:47.303Z,101870.09
2022-10-20T11:03:18.311Z,101861.25
2022-10-20T11:07:31.767Z,101853.16
2022-10-20T11:11:46.130Z,101846.16
2022-10-20T11:15:57.062Z,101850.50
2022-10-20T11:20:14.293Z,101827.56
2022-10-20T11:24:35.224Z,101834.53
2022-10-20T11:28:44.170Z,101825.63
2022-10-20T11:32:48.620Z,101828.22
2022-10-20T11:37:07.002Z,101828.75
2022-10-20T11:41:09.389Z,101800.88
2022-10-20T11:45:30.521Z,101822.97
2022-10-20T11:49:33.839Z,101809.84
2022-10-20T11:53:59.295Z,101802.41
2022-10-20T11:58:17.589Z,101799.63
2022-10-20T12:03:03.077Z,101787.47
2022-10-20T12:07:32.815Z,101766.34
2022-10-20T12:11:37.290Z,101790.56
2022-10-20T12:15:49.068Z,101800.28
2022-10-20T12:20:58.168Z,101792.28
2022-10-20T12:25:42.004Z,101788.03
2022-10-20T12:30:06.648Z,101781.06
2022-10-20T12:34:08.835Z,101781.28
2022-10-20T12:38:18.788Z,101778.38
2022-10-20T12:42:27.381Z,101773.28
2022-10-20T12:46:34.542Z,101785.50
2022-10-20T12:50:38.720Z,101781.03
2022-10-20T12:54:44.983Z,101802.03
2022-10-20T12:59:24.167Z,101788.19
2022-10-20T13:03:49.161Z,101797.72
2022-10-20T13:08:06.666Z,101800.38
2022-10-20T13:12:06.970Z,101797.00
2022-10-20T13:16:27.958Z,101803.03
2022-10-20T13:20:51.632Z,101801.25
2022-10-20T13:24:53.601Z,101816.16
2022-10-20T13:28:58.547Z,101811.00
2022-10-20T13:37:43.962Z,101812.16
2022-10-20T13:41:54.020Z,101800.03
2022-10-20T13:46:19.796Z,101801.00
2022-10-20T13:50:24.586Z,101806.38
2022-10-20T13:54:30.140Z,101799.44
2022-10-20T13:58:29.960Z,101771.25
2022-10-20T14:02:31.824Z,101796.78
2022-10-20T14:06:33.687Z,101815.38
2022-10-20T14:10:44.415Z,101819.78
2022-10-20T14:14:47.371Z,101825.97
2022-10-20T14:19:02.765Z,101812.75
2022-10-20T14:23:04.305Z,101808.44
2022-10-20T14:27:08.141Z,101832.19
2022-10-20T14:31:08.407Z,101820.78
2022-10-20T14:35:22.974Z,101826.09
2022-10-20T14:39:32.236Z,101819.06
2022-10-20T14:43:40.790Z,101819.94
2022-10-20T14:47:43.382Z,101813.84
2022-10-20T14:51:47.365Z,101801.53
2022-10-20T14:55:47.408Z,101820.00
2022-10-20T15:00:02.189Z,101823.56
2022-10-20T15:04:15.495Z,101810.41
2022-10-20T15:08:26.454Z,101807.75
2022-10-20T15:12:33.568Z,101823.59
2022-10-20T15:16:43.090Z,101820.94
2022-10-20T15:20:43.118Z,101820.97
2022-10-20T15:24:42.996Z,101829.78
2022-10-20T15:28:46.445Z,101818.31
2022-10-20T15:32:48.697Z,101763.75
2022-10-20T15:36:50.343Z,101831.53
2022-10-20T15:40:51.138Z,101820.09
2022-10-20T15:44:50.999Z,101822.72
2022-10-20T15:48:52.445Z,101835.03
2022-10-20T15:52:52.097Z,101845.56
2022-10-20T15:56:52.137Z,101851.72
2022-10-20T16:00:52.391Z,101842.88
2022-10-20T16:04:54.400Z,101860.47
2022-10-20T16:08:53.917Z,101862.97
2022-10-20T16:12:54.093Z,101870.91
2022-10-20T16:16:53.387Z,101847.94
2022-10-20T16:20:55.349Z,101885.69
2022-10-20T16:24:55.283Z,101889.19
2022-10-20T16:28:56.253Z,101896.09
2022-10-20T16:32:55.860Z,101875.72
2022-10-20T16:36:59.698Z,101838.63
2022-10-20T16:41:03.569Z,101884.56
2022-10-20T16:45:03.623Z,101911.06
2022-10-20T16:49:02.520Z,101914.59
2022-10-20T16:53:04.660Z,101923.31
2022-10-20T16:57:06.661Z,101925.72
2022-10-20T17:01:15.266Z,101922.97
2022-10-20T17:05:14.502Z,101927.13
2022-10-20T17:09:17.248Z,101914.69
2022-10-20T17:13:16.548Z,101942.66
2022-10-20T17:17:16.538Z,101925.75
2022-10-20T17:21:17.291Z,101938.50
2022-10-20T17:25:21.966Z,101945.22
2022-10-20T17:29:25.180Z,101944.78
2022-10-20T17:33:31.171Z,101941.09
2022-10-20T17:37:33.000Z,101936.50
2022-10-20T17:41:35.337Z,101948.06
2022-10-20T17:45:38.066Z,101960.44
2022-10-20T17:49:37.603Z,101948.41
2022-10-20T17:53:40.042Z,101963.38
2022-10-20T17:57:44.671Z,101935.09
2022-10-20T18:01:45.822Z,101956.16
2022-10-20T18:05:45.930Z,101946.94
2022-10-20T18:09:46.003Z,101951.38
2022-10-20T18:13:48.166Z,101958.31
2022-10-20T18:17:47.829Z,101964.13
2022-10-20T18:21:48.974Z,101959.38
2022-10-20T18:25:48.765Z,101955.16
2022-10-20T18:29:53.366Z,101978.09
2022-10-20T18:33:56.027Z,101973.59
2022-10-20T18:37:57.252Z,101977.06
2022-10-20T18:41:57.009Z,101971.78
2022-10-20T18:45:58.190Z,101976.75
2022-10-20T18:49:58.175Z,101985.41
2022-10-20T18:53:59.784Z,101969.97
2022-10-20T18:57:59.496Z,102002.66
2022-10-20T19:02:00.817Z,102012.44
2022-10-20T19:06:08.909Z,102008.19
2022-10-20T19:10:13.534Z,101976.47
2022-10-20T19:14:26.736Z,102035.88
2022-10-20T19:18:31.441Z,102043.72
2022-10-20T19:22:30.579Z,102042.78
2022-10-20T19:26:34.596Z,102032.94
2022-10-20T19:30:36.952Z,102002.75
2022-10-20T19:34:42.237Z,102032.81
2022-10-20T19:45:00.938Z,102074.75
2022-10-20T19:49:03.842Z,102081.06
2022-10-20T19:53:05.182Z,102092.41
2022-10-20T19:57:06.197Z,102101.00
2022-10-20T20:01:11.242Z,102101.84
2022-10-20T20:05:21.493Z,102110.19
2022-10-20T20:09:23.174Z,102122.94
2022-10-20T20:13:23.643Z,102117.88
2022-10-20T20:17:23.265Z,102133.69
2022-10-20T20:21:22.692Z,102141.59
2022-10-20T20:25:24.428Z,102139.06
2022-10-20T20:29:24.014Z,102147.03
2022-10-20T20:33:23.538Z,102145.34
2022-10-20T20:37:22.962Z,102165.19
2022-10-20T20:41:25.707Z,102159.13
2022-10-20T20:45:25.217Z,102161.34
2022-10-20T20:49:24.412Z,102149.09
2022-10-20T20:53:24.729Z,102163.88
2022-10-20T20:57:26.582Z,102163.69
2022-10-20T21:01:28.024Z,102181.09
2022-10-20T21:05:27.712Z,102194.50
2022-10-20T21:09:26.689Z,102188.91
2022-10-20T21:13:28.393Z,102192.19
2022-10-20T21:17:27.354Z,102196.94
2022-10-20T21:21:28.662Z,102197.19
2022-10-20T21:25:28.215Z,102180.94
2022-10-20T21:29:29.509Z,102204.06
2022-10-20T21:33:30.181Z,102213.03
2022-10-20T21:37:30.414Z,102217.44
2022-10-20T21:41:32.014Z,102213.00
2022-10-20T21:45:33.620Z,102227.03
2022-10-20T21:49:33.447Z,102225.28
2022-10-20T21:53:32.993Z,102221.84
2022-10-20T21:57:32.039Z,102219.06
2022-10-20T22:01:33.449Z,102212.66
2022-10-20T22:05:32.935Z,102230.34
2022-10-20T22:09:32.560Z,102231.22
2022-10-20T22:13:31.712Z,102226.09
2022-10-20T22:17:33.243Z,102228.31
2022-10-20T22:21:33.139Z,102234.31
2022-10-20T22:25:32.562Z,102238.63
2022-10-20T22:29:32.087Z,102233.59
2022-10-20T22:33:33.414Z,102234.66
2022-10-20T22:37:32.592Z,102237.31
2022-10-20T22:41:32.263Z,102232.56
2022-10-20T22:45:31.231Z,102244.97
2022-10-20T22:49:32.773Z,102242.44
2022-10-20T22:53:32.178Z,102246.03
2022-10-20T22:57:31.615Z,102249.59
2022-10-20T23:01:31.310Z,102244.69
2022-10-20T23:05:32.890Z,102255.28
2022-10-20T23:09:32.402Z,102242.56
2022-10-20T23:13:31.513Z,102239.47
2022-10-20T23:17:30.949Z,102242.03
2022-10-20T23:21:32.437Z,102244.19
2022-10-20T23:25:31.898Z,102215.63
2022-10-20T23:29:31.211Z,102246.34
2022-10-20T23:33:30.599Z,102256.66
2022-10-20T23:37:32.294Z,102253.84
2022-10-20T23:41:31.671Z,102262.09
2022-10-20T23:45:34.052Z,102269.53
2022-10-20T23:49:36.396Z,102270.41
2022-10-20T23:53:37.666Z,102266.88
2022-10-20T23:57:37.284Z,102268.94
